createdAt,value
2022-12-26T00:02:28.009Z,1.60
2022-12-26T00:04:59.417Z,1.88
2022-12-26T00:07:29.846Z,1.20
2022-12-26T00:10:00.636Z,1.55
2022-12-26T00:12:33.635Z,1.20
2022-12-26T00:15:00.614Z,1.40
2022-12-26T00:17:30.778Z,1.27
2022-12-26T00:20:01.273Z,1.20
2022-12-26T00:22:28.927Z,1.63
2022-12-26T00:24:56.123Z,1.67
2022-12-26T00:27:29.297Z,1.33
2022-12-26T00:30:02.773Z,1.42
2022-12-26T00:32:35.004Z,1.45
2022-12-26T00:35:06.454Z,1.40
2022-12-26T00:37:36.931Z,1.70
2022-12-26T00:40:08.146Z,1.42
2022-12-26T00:42:35.122Z,1.40
2022-12-26T00:45:02.211Z,1.50
2022-12-26T00:47:29.254Z,1.17
2022-12-26T00:50:13.763Z,1.70
2022-12-26T00:52:45.777Z,1.63
2022-12-26T00:55:15.897Z,2.10
2022-12-26T00:57:46.532Z,1.38
2022-12-26T01:00:17.207Z,1.27
2022-12-26T01:02:44.332Z,1.40
2022-12-26T01:05:12.097Z,1.48
2022-12-26T01:08:23.409Z,1.25
2022-12-26T01:10:41.640Z,1.50
2022-12-26T01:13:11.965Z,1.38
2022-12-26T01:15:42.536Z,1.55
2022-12-26T01:18:16.009Z,1.58
2022-12-26T01:20:43.125Z,1.40
2022-12-26T01:23:12.816Z,1.42
2022-12-26T01:26:18.652Z,1.35
2022-12-26T01:28:34.252Z,0.80
2022-12-26T01:31:04.479Z,1.30
2022-12-26T01:33:35.083Z,1.35
2022-12-26T01:36:11.266Z,1.25
2022-12-26T01:38:41.777Z,1.35
2022-12-26T01:41:22.394Z,0.90
2022-12-26T01:43:59.935Z,1.50
2022-12-26T01:46:35.020Z,1.30
2022-12-26T01:49:10.402Z,1.10
2022-12-26T01:51:42.653Z,1.17
2022-12-26T01:54:40.697Z,1.48
2022-12-26T01:57:02.176Z,1.23
2022-12-26T01:59:30.554Z,1.38
2022-12-26T02:02:04.935Z,1.00
2022-12-26T02:04:58.385Z,1.23
2022-12-26T02:07:29.317Z,0.98
2022-12-26T02:09:59.098Z,1.10
2022-12-26T02:12:35.918Z,1.00
2022-12-26T02:15:09.669Z,1.20
2022-12-26T02:17:40.545Z,1.23
2022-12-26T02:20:09.252Z,1.00
2022-12-26T02:22:54.730Z,1.17
2022-12-26T02:25:27.974Z,1.10
2022-12-26T02:28:13.290Z,1.13
2022-12-26T02:31:00.330Z,1.20
2022-12-26T02:33:37.505Z,1.30
2022-12-26T02:36:07.853Z,1.00
2022-12-26T02:38:46.855Z,1.30
2022-12-26T02:41:32.172Z,1.17
2022-12-26T02:44:23.235Z,1.20
2022-12-26T02:47:04.082Z,1.08
2022-12-26T02:49:55.600Z,0.70
2022-12-26T02:52:44.508Z,1.30
2022-12-26T02:55:39.855Z,1.13
2022-12-26T02:58:32.098Z,1.15
2022-12-26T03:01:22.993Z,1.00
2022-12-26T03:04:09.986Z,1.30
2022-12-26T03:07:00.453Z,1.25
2022-12-26T03:09:48.781Z,0.88
2022-12-26T03:12:37.236Z,1.63
2022-12-26T03:15:16.080Z,1.27
2022-12-26T03:18:04.516Z,1.02
2022-12-26T03:20:36.389Z,1.20
2022-12-26T03:23:03.803Z,1.30
2022-12-26T03:25:49.085Z,1.10
2022-12-26T03:28:21.369Z,1.10
2022-12-26T03:30:55.275Z,1.15
2022-12-26T03:33:45.212Z,0.98
2022-12-26T03:36:19.659Z,1.10
2022-12-26T03:38:54.884Z,1.10
2022-12-26T03:41:52.925Z,1.10
2022-12-26T03:44:53.323Z,1.33
2022-12-26T03:47:41.892Z,1.30
2022-12-26T03:50:37.259Z,0.80
2022-12-26T03:53:31.377Z,0.90
2022-12-26T03:56:30.933Z,0.95
2022-12-26T03:59:22.368Z,1.10
2022-12-26T04:02:09.792Z,1.05
2022-12-26T04:04:56.812Z,1.20
2022-12-26T04:07:56.605Z,0.80
2022-12-26T04:10:51.953Z,1.20
2022-12-26T04:13:39.613Z,1.17
2022-12-26T04:16:34.138Z,1.10
2022-12-26T04:19:25.334Z,1.17
2022-12-26T04:22:13.566Z,1.23
2022-12-26T04:25:14.485Z,1.30
2022-12-26T04:28:00.172Z,0.65
2022-12-26T04:30:45.623Z,0.90
2022-12-26T04:33:43.312Z,1.40
2022-12-26T04:36:32.281Z,1.13
2022-12-26T04:39:19.458Z,1.20
2022-12-26T04:42:12.125Z,1.20
2022-12-26T04:44:42.771Z,0.95
2022-12-26T04:47:10.669Z,1.10
2022-12-26T04:50:02.176Z,1.40
2022-12-26T04:52:52.412Z,0.77
2022-12-26T04:55:26.027Z,1.00
2022-12-26T04:57:55.726Z,1.35
2022-12-26T05:00:28.654Z,1.20
2022-12-26T05:03:19.562Z,1.20
2022-12-26T05:06:07.660Z,1.08
2022-12-26T05:08:57.436Z,1.17
2022-12-26T05:11:25.541Z,1.48
2022-12-26T05:13:58.597Z,1.35
2022-12-26T05:16:45.006Z,1.17
2022-12-26T05:19:34.449Z,1.30
2022-12-26T05:22:21.007Z,1.13
2022-12-26T05:25:07.001Z,1.50
2022-12-26T05:27:54.506Z,1.50
2022-12-26T05:30:27.564Z,0.90
2022-12-26T05:33:13.078Z,1.30
2022-12-26T05:35:46.177Z,1.50
2022-12-26T05:38:17.365Z,1.20
2022-12-26T05:40:50.715Z,1.02
2022-12-26T05:43:23.653Z,1.25
2022-12-26T05:45:55.581Z,1.15
2022-12-26T05:48:25.009Z,1.60
2022-12-26T05:51:05.556Z,1.25
2022-12-26T05:53:37.143Z,1.10
2022-12-26T05:56:11.861Z,1.30
2022-12-26T05:58:39.531Z,1.52
2022-12-26T06:01:10.824Z,1.65
2022-12-26T06:03:43.758Z,1.10
2022-12-26T06:06:11.233Z,1.60
2022-12-26T06:08:40.970Z,1.00
2022-12-26T06:11:12.913Z,1.15
2022-12-26T06:13:40.965Z,1.63
2022-12-26T06:16:16.946Z,1.42
2022-12-26T06:18:44.372Z,1.50
2022-12-26T06:21:16.527Z,1.58
2022-12-26T06:23:43.911Z,1.13
2022-12-26T06:26:13.410Z,1.30
2022-12-26T06:28:44.929Z,1.63
2022-12-26T06:31:13.303Z,1.52
2022-12-26T06:33:43.382Z,1.10
2022-12-26T06:36:15.330Z,1.27
2022-12-26T06:38:52.319Z,1.42
2022-12-26T06:41:26.452Z,1.40
2022-12-26T06:43:58.062Z,1.60
2022-12-26T06:46:25.811Z,1.17
2022-12-26T06:48:56.451Z,1.30
2022-12-26T06:51:24.731Z,1.60
2022-12-26T06:53:56.448Z,1.40
2022-12-26T06:56:28.654Z,1.58
2022-12-26T06:59:03.706Z,0.80
2022-12-26T07:01:35.087Z,1.70
2022-12-26T07:04:06.821Z,1.77
2022-12-26T07:06:35.203Z,1.30
2022-12-26T07:09:10.354Z,1.50
2022-12-26T07:11:38.719Z,1.70
2022-12-26T07:14:09.744Z,1.17
2022-12-26T07:16:42.077Z,1.23
2022-12-26T07:19:13.644Z,1.38
2022-12-26T07:21:43.779Z,1.50
2022-12-26T07:24:20.680Z,1.58
2022-12-26T07:26:53.486Z,1.77
2022-12-26T07:29:20.816Z,1.20
2022-12-26T07:31:48.119Z,1.40
2022-12-26T07:34:21.765Z,1.30
2022-12-26T07:36:50.546Z,1.40
2022-12-26T07:39:17.768Z,1.17
2022-12-26T07:42:00.350Z,1.35
2022-12-26T07:44:32.186Z,1.30
2022-12-26T07:47:03.497Z,1.38
2022-12-26T07:49:37.026Z,1.48
2022-12-26T07:52:06.655Z,1.33
2022-12-26T07:54:39.773Z,1.40
2022-12-26T07:57:46.310Z,1.20
2022-12-26T07:59:58.045Z,1.33
2022-12-26T08:02:27.743Z,1.40
2022-12-26T08:05:00.659Z,1.95
2022-12-26T08:07:28.020Z,1.40
2022-12-26T08:09:55.251Z,1.92
2022-12-26T08:12:25.059Z,1.20
2022-12-26T08:14:58.036Z,1.35
2022-12-26T08:17:29.877Z,1.70
2022-12-26T08:20:01.835Z,1.63
2022-12-26T08:22:34.849Z,1.40
2022-12-26T08:25:04.743Z,1.27
2022-12-26T08:27:38.095Z,1.10
2022-12-26T08:30:07.943Z,1.20
2022-12-26T08:32:42.570Z,1.25
2022-12-26T08:35:16.551Z,1.15
2022-12-26T08:37:52.569Z,1.60
2022-12-26T08:40:39.891Z,1.35
2022-12-26T08:43:33.445Z,1.38
2022-12-26T08:46:10.865Z,1.50
2022-12-26T08:48:39.338Z,1.80
2022-12-26T08:51:17.316Z,1.48
2022-12-26T08:53:44.810Z,1.38
2022-12-26T08:56:18.414Z,1.38
2022-12-26T08:58:48.622Z,1.33
2022-12-26T09:01:23.173Z,1.30
2022-12-26T09:03:54.316Z,1.13
2022-12-26T09:06:21.477Z,1.20
2022-12-26T09:08:54.788Z,1.63
2022-12-26T09:11:29.182Z,1.35
2022-12-26T09:14:01.330Z,1.67
2022-12-26T09:16:35.629Z,1.38
2022-12-26T09:19:07.011Z,1.60
2022-12-26T09:21:37.612Z,1.52
2022-12-26T09:24:12.535Z,1.45
2022-12-26T09:26:42.632Z,1.42
2022-12-26T09:29:13.789Z,1.50
2022-12-26T09:31:46.782Z,0.82
2022-12-26T09:34:15.813Z,1.15
2022-12-26T09:36:43.399Z,1.17
2022-12-26T09:39:11.875Z,1.30
2022-12-26T09:41:47.081Z,1.20
2022-12-26T09:44:31.461Z,1.67
2022-12-26T09:47:05.106Z,0.80
2022-12-26T09:49:40.774Z,1.42
2022-12-26T09:52:15.633Z,1.52
2022-12-26T09:57:44.372Z,1.33
2022-12-26T10:00:38.046Z,1.30
2022-12-26T10:03:05.805Z,1.58
2022-12-26T10:05:43.221Z,1.67
2022-12-26T10:08:16.092Z,1.55
2022-12-26T10:11:01.459Z,1.17
2022-12-26T10:13:43.657Z,1.30
2022-12-26T10:16:31.028Z,1.40
2022-12-26T10:19:10.095Z,1.58
2022-12-26T10:21:45.604Z,1.30
2022-12-26T10:24:26.891Z,1.73
2022-12-26T10:26:57.601Z,1.58
2022-12-26T10:29:32.770Z,1.60
2022-12-26T10:32:10.927Z,1.80
2022-12-26T10:34:43.524Z,1.10
2022-12-26T10:37:18.277Z,1.23
2022-12-26T10:39:48.521Z,1.33
2022-12-26T10:42:25.012Z,1.80
2022-12-26T10:44:52.138Z,1.80
2022-12-26T10:47:19.509Z,1.20
2022-12-26T10:49:52.580Z,1.13
2022-12-26T10:52:28.010Z,1.90
2022-12-26T10:55:27.901Z,1.23
2022-12-26T10:57:55.217Z,1.05
2022-12-26T11:00:24.668Z,1.48
2022-12-26T11:03:10.515Z,1.20
2022-12-26T11:08:47.580Z,1.10
2022-12-26T11:11:20.644Z,1.00
2022-12-26T11:13:57.725Z,1.42
2022-12-26T11:16:38.878Z,1.20
2022-12-26T11:19:09.728Z,1.30
2022-12-26T11:21:41.763Z,1.05
2022-12-26T11:24:12.373Z,1.10
2022-12-26T11:26:42.866Z,0.90
2022-12-26T11:29:10.382Z,1.05
2022-12-26T11:31:38.562Z,1.25
2022-12-26T11:34:22.682Z,1.10
2022-12-26T11:36:55.165Z,1.25
2022-12-26T11:39:27.441Z,0.90
2022-12-26T11:41:55.099Z,1.02
2022-12-26T11:44:25.256Z,1.00
2022-12-26T11:47:26.934Z,0.82
2022-12-26T11:50:08.895Z,1.10
2022-12-26T11:52:40.841Z,0.88
2022-12-26T11:55:23.309Z,0.85
2022-12-26T11:58:08.512Z,1.20
2022-12-26T12:00:39.138Z,1.00
2022-12-26T12:03:14.122Z,0.98
2022-12-26T12:05:47.215Z,1.10
2022-12-26T12:08:20.040Z,1.08
2022-12-26T12:10:51.720Z,0.98
2022-12-26T12:13:27.841Z,1.30
2022-12-26T12:16:01.294Z,1.08
2022-12-26T12:18:38.348Z,0.98
2022-12-26T12:21:23.429Z,0.98
2022-12-26T12:24:12.041Z,0.88
2022-12-26T12:27:04.941Z,0.80
2022-12-26T12:29:38.183Z,0.90
2022-12-26T12:32:25.983Z,0.80
2022-12-26T12:35:11.849Z,0.80
2022-12-26T12:37:50.207Z,0.85
2022-12-26T12:40:26.837Z,1.00
2022-12-26T12:43:12.083Z,0.90
2022-12-26T12:45:52.823Z,0.70
2022-12-26T12:48:28.994Z,0.70
2022-12-26T12:51:14.478Z,0.82
2022-12-26T12:53:41.452Z,0.90
2022-12-26T12:56:17.929Z,1.00
2022-12-26T12:58:47.987Z,1.02
2022-12-26T13:01:27.132Z,0.95
2022-12-26T13:04:01.058Z,0.98
2022-12-26T13:06:43.637Z,1.10
2022-12-26T13:09:19.835Z,0.90
2022-12-26T13:11:55.893Z,1.50
2022-12-26T13:14:24.876Z,1.20
2022-12-26T13:17:02.696Z,1.02
2022-12-26T13:19:32.916Z,1.13
2022-12-26T13:22:03.143Z,0.95
2022-12-26T13:24:41.171Z,0.70
2022-12-26T13:27:08.676Z,0.90
2022-12-26T13:29:37.884Z,0.90
2022-12-26T13:32:09.634Z,0.70
2022-12-26T13:34:40.979Z,0.70
2022-12-26T13:37:31.253Z,0.90
2022-12-26T13:40:00.230Z,0.80
2022-12-26T13:42:51.376Z,0.80
2022-12-26T13:45:36.345Z,0.90
2022-12-26T13:48:23.530Z,0.90
2022-12-26T13:50:57.534Z,0.98
2022-12-26T13:53:40.819Z,1.25
2022-12-26T13:56:19.667Z,1.00
2022-12-26T13:59:01.416Z,0.77
2022-12-26T14:01:34.773Z,0.73
2022-12-26T14:04:01.958Z,0.90
2022-12-26T14:06:47.908Z,0.80
2022-12-26T14:09:16.887Z,1.05
2022-12-26T14:11:53.509Z,0.70
2022-12-26T14:14:26.332Z,0.65
2022-12-26T14:17:17.024Z,0.82
2022-12-26T14:19:53.733Z,0.75
2022-12-26T14:22:21.029Z,1.20
2022-12-26T14:25:00.023Z,0.98
2022-12-26T14:27:41.296Z,1.20
2022-12-26T14:30:09.213Z,0.90
2022-12-26T14:32:55.549Z,0.90
2022-12-26T14:35:30.722Z,0.85
2022-12-26T14:38:01.179Z,0.90
2022-12-26T14:40:37.663Z,0.90
2022-12-26T14:43:16.937Z,0.93
2022-12-26T14:45:49.340Z,0.90
2022-12-26T14:48:19.398Z,1.00
2022-12-26T14:50:46.620Z,0.80
2022-12-26T14:53:28.947Z,1.33
2022-12-26T14:56:11.324Z,1.10
2022-12-26T14:58:51.127Z,0.95
2022-12-26T15:01:19.018Z,1.10
2022-12-26T15:04:04.489Z,1.20
2022-12-26T15:06:31.406Z,0.95
2022-12-26T15:09:21.650Z,1.00
2022-12-26T15:11:54.728Z,1.20
2022-12-26T15:14:25.332Z,1.00
2022-12-26T15:17:07.566Z,1.30
2022-12-26T15:19:44.058Z,1.15
2022-12-26T15:22:33.932Z,1.40
2022-12-26T15:25:20.924Z,1.48
2022-12-26T15:28:00.124Z,1.65
2022-12-26T15:30:50.733Z,1.05
2022-12-26T15:33:37.963Z,1.00
2022-12-26T15:36:40.764Z,1.00
2022-12-26T15:39:18.891Z,1.23
2022-12-26T15:42:04.286Z,0.90
2022-12-26T15:44:49.776Z,1.60
2022-12-26T15:47:32.299Z,1.45
2022-12-26T15:50:18.848Z,1.20
2022-12-26T15:52:55.887Z,1.60
2022-12-26T15:55:34.836Z,1.05
2022-12-26T15:58:02.349Z,1.40
2022-12-26T16:00:35.254Z,1.52
2022-12-26T16:03:12.792Z,1.40
2022-12-26T16:05:43.425Z,1.00
2022-12-26T16:08:29.120Z,1.45
2022-12-26T16:11:16.398Z,1.33
2022-12-26T16:13:54.477Z,1.63
2022-12-26T16:16:32.649Z,0.95
2022-12-26T16:19:15.207Z,1.20
2022-12-26T16:22:01.416Z,1.45
2022-12-26T16:24:28.433Z,1.30
2022-12-26T16:27:00.320Z,1.40
2022-12-26T16:29:31.204Z,1.00
2022-12-26T16:32:06.435Z,1.52
2022-12-26T16:34:35.413Z,1.35
2022-12-26T16:37:02.923Z,1.10
2022-12-26T16:39:34.095Z,0.90
2022-12-26T16:42:09.290Z,1.13
2022-12-26T16:44:40.443Z,1.58
2022-12-26T16:47:10.673Z,1.00
2022-12-26T16:49:38.217Z,1.23
2022-12-26T16:52:09.071Z,0.65
2022-12-26T16:54:39.219Z,1.00
2022-12-26T16:57:19.535Z,0.75
2022-12-26T16:59:59.929Z,1.02
2022-12-26T17:02:33.419Z,0.90
2022-12-26T17:05:11.699Z,1.20
2022-12-26T17:07:51.030Z,0.90
2022-12-26T17:10:23.006Z,0.80
2022-12-26T17:12:53.180Z,0.80
2022-12-26T17:15:31.174Z,1.00
2022-12-26T17:18:24.127Z,1.20
2022-12-26T17:20:51.191Z,0.98
2022-12-26T17:23:32.575Z,0.98
2022-12-26T17:26:22.452Z,0.75
2022-12-26T17:28:50.407Z,1.00
2022-12-26T17:31:19.824Z,1.08
2022-12-26T17:33:48.228Z,0.88
2022-12-26T17:37:16.656Z,0.70
2022-12-26T17:39:13.378Z,0.75
2022-12-26T17:41:44.048Z,0.60
2022-12-26T17:44:29.691Z,0.90
2022-12-26T17:47:05.054Z,0.93
2022-12-26T17:49:32.254Z,0.70
2022-12-26T17:52:04.308Z,0.60
2022-12-26T17:54:35.172Z,0.70
2022-12-26T17:57:07.698Z,0.93
2022-12-26T17:59:38.205Z,1.08
2022-12-26T18:02:11.309Z,0.98
2022-12-26T18:04:44.426Z,0.80
2022-12-26T18:07:28.714Z,0.80
2022-12-26T18:10:00.791Z,1.08
2022-12-26T18:12:31.718Z,0.60
2022-12-26T18:15:03.231Z,0.90
2022-12-26T18:17:33.501Z,1.30
2022-12-26T18:20:00.785Z,1.00
2022-12-26T18:22:30.188Z,1.20
2022-12-26T18:25:01.133Z,0.95
2022-12-26T18:27:32.458Z,0.80
2022-12-26T18:30:03.073Z,0.85
2022-12-26T18:32:34.005Z,1.10
2022-12-26T18:35:04.635Z,0.98
2022-12-26T18:37:31.853Z,0.90
2022-12-26T18:39:59.074Z,1.10
2022-12-26T18:42:27.261Z,0.70
2022-12-26T18:45:00.055Z,0.80
2022-12-26T18:47:27.089Z,0.60
2022-12-26T18:50:00.371Z,0.50
2022-12-26T18:52:27.307Z,0.47
2022-12-26T18:54:58.849Z,0.80
2022-12-26T18:57:27.745Z,0.50
2022-12-26T18:59:57.783Z,0.50
2022-12-26T19:02:25.581Z,0.50
2022-12-26T19:04:55.885Z,0.60
2022-12-26T19:07:28.595Z,0.55
2022-12-26T19:09:57.545Z,0.60
2022-12-26T19:12:28.228Z,0.47
2022-12-26T19:14:58.117Z,0.47
2022-12-26T19:17:24.985Z,0.55
2022-12-26T19:19:55.471Z,0.65
2022-12-26T19:22:22.396Z,0.40
2022-12-26T19:24:53.743Z,0.60
2022-12-26T19:27:23.734Z,0.60
2022-12-26T19:29:54.077Z,0.50
2022-12-26T19:32:23.921Z,0.50
2022-12-26T19:34:50.828Z,0.43
2022-12-26T19:37:17.677Z,0.60
2022-12-26T19:39:47.959Z,0.60
2022-12-26T19:42:15.011Z,0.60
2022-12-26T19:44:43.254Z,0.93
2022-12-26T19:47:12.759Z,0.55
2022-12-26T19:49:40.616Z,0.50
2022-12-26T19:52:07.792Z,0.65
2022-12-26T19:54:36.244Z,0.57
2022-12-26T19:57:09.681Z,0.70
2022-12-26T19:59:40.539Z,0.73
2022-12-26T20:02:10.752Z,0.60
2022-12-26T20:04:38.062Z,0.47
2022-12-26T20:07:06.287Z,0.50
2022-12-26T20:09:33.385Z,0.55
2022-12-26T20:12:00.743Z,0.60
2022-12-26T20:14:33.607Z,0.38
2022-12-26T20:17:08.023Z,0.52
2022-12-26T20:19:38.535Z,0.60
2022-12-26T20:22:08.523Z,0.63
2022-12-26T20:24:38.725Z,0.70
2022-12-26T20:27:05.792Z,0.60
2022-12-26T20:29:37.780Z,0.63
2022-12-26T20:32:05.053Z,0.50
2022-12-26T20:34:32.239Z,0.63
2022-12-26T20:37:01.716Z,0.50
2022-12-26T20:39:29.056Z,0.50
2022-12-26T20:41:59.038Z,0.60
2022-12-26T20:44:28.611Z,0.50
2022-12-26T20:46:58.970Z,0.45
2022-12-26T20:49:26.191Z,0.63
2022-12-26T20:51:53.324Z,0.50
2022-12-26T20:54:23.348Z,0.57
2022-12-26T20:56:50.781Z,0.60
2022-12-26T20:59:21.031Z,0.65
2022-12-26T21:01:49.933Z,0.60
2022-12-26T21:04:23.612Z,1.17
2022-12-26T21:06:55.525Z,0.90
2022-12-26T21:09:25.320Z,0.70
2022-12-26T21:11:52.829Z,0.95
2022-12-26T21:14:21.683Z,0.68
2022-12-26T21:16:50.493Z,0.70
2022-12-26T21:19:18.150Z,0.70
2022-12-26T21:21:57.133Z,0.50
2022-12-26T21:24:40.212Z,0.77
2022-12-26T21:27:18.917Z,0.80
2022-12-26T21:29:51.892Z,0.63
2022-12-26T21:32:23.117Z,0.50
2022-12-26T21:34:50.141Z,0.73
2022-12-26T21:37:35.487Z,0.73
2022-12-26T21:40:08.419Z,0.50
2022-12-26T21:42:38.437Z,0.60
2022-12-26T21:45:08.904Z,0.50
2022-12-26T21:47:41.982Z,0.52
2022-12-26T21:50:09.266Z,0.60
2022-12-26T21:52:39.379Z,0.60
2022-12-26T21:55:25.164Z,0.60
2022-12-26T21:57:55.082Z,0.50
2022-12-26T22:00:23.173Z,0.52
2022-12-26T22:03:08.952Z,0.50
2022-12-26T22:05:44.569Z,0.65
2022-12-26T22:08:14.727Z,0.65
2022-12-26T22:11:06.944Z,0.57
2022-12-26T22:13:42.065Z,0.43
2022-12-26T22:16:17.459Z,0.57
2022-12-26T22:18:47.963Z,0.60
2022-12-26T22:21:20.058Z,0.57
2022-12-26T22:23:50.998Z,0.50
2022-12-26T22:26:22.138Z,0.50
2022-12-26T22:28:49.606Z,0.40
2022-12-26T22:31:23.091Z,0.50
2022-12-26T22:33:59.993Z,0.40
2022-12-26T22:36:28.230Z,0.40
2022-12-26T22:38:55.433Z,0.60
2022-12-26T22:41:22.649Z,0.40
2022-12-26T22:43:52.766Z,0.57
2022-12-26T22:46:19.801Z,0.40
2022-12-26T22:48:51.072Z,0.50
2022-12-26T22:51:24.579Z,0.40
2022-12-26T22:54:01.885Z,0.60
2022-12-26T22:56:29.815Z,0.55
2022-12-26T22:58:57.698Z,0.50
2022-12-26T23:01:30.502Z,0.40
2022-12-26T23:03:58.279Z,0.55
2022-12-26T23:06:29.727Z,0.60
2022-12-26T23:09:02.055Z,0.60
2022-12-26T23:11:34.648Z,0.40
2022-12-26T23:14:04.017Z,0.40
2022-12-26T23:16:45.406Z,0.77
2022-12-26T23:19:39.967Z,0.47
2022-12-26T23:22:09.472Z,0.68
2022-12-26T23:24:37.281Z,0.40
2022-12-26T23:27:24.406Z,0.73
2022-12-26T23:30:10.605Z,0.40
2022-12-26T23:32:38.303Z,0.70
2022-12-26T23:35:09.800Z,0.60
2022-12-26T23:37:37.136Z,0.70
2022-12-26T23:40:04.752Z,0.70
2022-12-26T23:42:35.988Z,0.65
2022-12-26T23:45:03.318Z,0.80
2022-12-26T23:47:33.674Z,0.73
2022-12-26T23:50:04.177Z,0.50
2022-12-26T23:52:31.535Z,0.60
2022-12-26T23:55:10.953Z,0.70
2022-12-26T23:57:38.091Z,0.80
